sensor_id;sensor_type;location;lat;lon;timestamp;temperature;humidity
18454;DHT22;9356;52.202;20.950;2023-02-03T00:00:03;2.40;99.90
18454;DHT22;9356;52.202;20.950;2023-02-03T00:01:12;2.50;99.90
18454;DHT22;9356;52.202;20.950;2023-02-03T00:02:16;2.50;99.90
18454;DHT22;9356;52.202;20.950;2023-02-03T00:03:19;1.30;99.90
18454;DHT22;9356;52.202;20.950;2023-02-03T00:04:26;2.40;99.90
18454;DHT22;9356;52.202;20.950;2023-02-03T00:05:30;2.40;99.90
18454;DHT22;9356;52.202;20.950;2023-02-03T00:06:35;2.50;99.90
18454;DHT22;9356;52.202;20.950;2023-02-03T00:07:38;2.50;99.90
18454;DHT22;9356;52.202;20.950;2023-02-03T00:08:43;2.50;99.90
18454;DHT22;9356;52.202;20.950;2023-02-03T00:09:46;2.50;99.90
18454;DHT22;9356;52.202;20.950;2023-02-03T00:10:57;2.50;99.90
18454;DHT22;9356;52.202;20.950;2023-02-03T00:12:06;2.50;99.90
18454;DHT22;9356;52.202;20.950;2023-02-03T00:13:13;2.50;99.90
18454;DHT22;9356;52.202;20.950;2023-02-03T00:14:16;2.40;99.90
18454;DHT22;9356;52.202;20.950;2023-02-03T00:15:19;2.50;99.90
18454;DHT22;9356;52.202;20.950;2023-02-03T00:16:24;2.40;99.90
18454;DHT22;9356;52.202;20.950;2023-02-03T00:17:32;2.40;99.90
18454;DHT22;9356;52.202;20.950;2023-02-03T00:18:39;1.60;99.90
18454;DHT22;9356;52.202;20.950;2023-02-03T00:19:46;2.40;99.90
18454;DHT22;9356;52.202;20.950;2023-02-03T00:20:49;2.40;99.90
18454;DHT22;9356;52.202;20.950;2023-02-03T00:21:52;2.40;99.90
18454;DHT22;9356;52.202;20.950;2023-02-03T00:23:02;2.40;99.90
18454;DHT22;9356;52.202;20.950;2023-02-03T00:24:08;2.40;99.90
18454;DHT22;9356;52.202;20.950;2023-02-03T00:25:11;2.40;99.90
18454;DHT22;9356;52.202;20.950;2023-02-03T00:26:16;2.30;99.90
18454;DHT22;9356;52.202;20.950;2023-02-03T00:27:20;2.30;99.90
18454;DHT22;9356;52.202;20.950;2023-02-03T00:28:24;2.30;99.90
18454;DHT22;9356;52.202;20.950;2023-02-03T00:29:29;2.00;99.90
18454;DHT22;9356;52.202;20.950;2023-02-03T00:30:41;2.10;99.90
18454;DHT22;9356;52.202;20.950;2023-02-03T00:31:45;2.20;99.90
18454;DHT22;9356;52.202;20.950;2023-02-03T00:32:49;2.20;99.90
18454;DHT22;9356;52.202;20.950;2023-02-03T00:33:55;2.40;99.90
18454;DHT22;9356;52.202;20.950;2023-02-03T00:35:00;2.30;99.90
18454;DHT22;9356;52.202;20.950;2023-02-03T00:36:09;2.30;99.90
18454;DHT22;9356;52.202;20.950;2023-02-03T00:37:13;2.30;99.90
18454;DHT22;9356;52.202;20.950;2023-02-03T00:38:21;3.10;99.90
18454;DHT22;9356;52.202;20.950;2023-02-03T00:39:25;2.30;99.90
18454;DHT22;9356;52.202;20.950;2023-02-03T00:40:30;2.40;99.90
18454;DHT22;9356;52.202;20.950;2023-02-03T00:41:38;2.80;99.90
18454;DHT22;9356;52.202;20.950;2023-02-03T00:42:43;2.30;99.90
18454;DHT22;9356;52.202;20.950;2023-02-03T00:43:47;2.30;99.90
18454;DHT22;9356;52.202;20.950;2023-02-03T00:44:51;2.30;99.90
18454;DHT22;9356;52.202;20.950;2023-02-03T00:46:03;2.30;99.90
18454;DHT22;9356;52.202;20.950;2023-02-03T00:47:13;1.90;99.90
18454;DHT22;9356;52.202;20.950;2023-02-03T00:48:19;2.20;99.90
18454;DHT22;9356;52.202;20.950;2023-02-03T00:49:24;2.30;99.90
18454;DHT22;9356;52.202;20.950;2023-02-03T00:50:30;2.30;99.90
18454;DHT22;9356;52.202;20.950;2023-02-03T00:51:34;2.20;99.90
18454;DHT22;9356;52.202;20.950;2023-02-03T00:52:41;2.20;99.90
18454;DHT22;9356;52.202;20.950;2023-02-03T00:53:49;2.20;99.90
18454;DHT22;9356;52.202;20.950;2023-02-03T00:54:52;1.40;99.90
18454;DHT22;9356;52.202;20.950;2023-02-03T00:55:56;2.20;99.90
18454;DHT22;9356;52.202;20.950;2023-02-03T00:57:01;2.20;99.90
18454;DHT22;9356;52.202;20.950;2023-02-03T00:58:07;2.30;99.90
18454;DHT22;9356;52.202;20.950;2023-02-03T00:59:11;2.30;99.90
18454;DHT22;9356;52.202;20.950;2023-02-03T01:00:16;2.30;99.90
18454;DHT22;9356;52.202;20.950;2023-02-03T01:01:20;2.20;99.90
18454;DHT22;9356;52.202;20.950;2023-02-03T01:02:24;2.20;99.90
18454;DHT22;9356;52.202;20.950;2023-02-03T01:03:27;2.20;99.90
18454;DHT22;9356;52.202;20.950;2023-02-03T01:04:30;2.20;99.90
18454;DHT22;9356;52.202;20.950;2023-02-03T01:05:33;2.20;99.90
18454;DHT22;9356;52.202;20.950;2023-02-03T01:06:39;2.20;99.90
18454;DHT22;9356;52.202;20.950;2023-02-03T01:07:41;2.20;99.90
18454;DHT22;9356;52.202;20.950;2023-02-03T01:08:46;2.40;99.90
18454;DHT22;9356;52.202;20.950;2023-02-03T01:09:49;2.20;99.90
18454;DHT22;9356;52.202;20.950;2023-02-03T01:10:53;2.20;99.90
18454;DHT22;9356;52.202;20.950;2023-02-03T01:11:56;2.20;99.90
18454;DHT22;9356;52.202;20.950;2023-02-03T01:13:00;2.20;99.90
18454;DHT22;9356;52.202;20.950;2023-02-03T01:14:03;2.20;99.90
18454;DHT22;9356;52.202;20.950;2023-02-03T01:15:10;2.30;99.90
18454;DHT22;9356;52.202;20.950;2023-02-03T01:16:21;0.60;99.90
18454;DHT22;9356;52.202;20.950;2023-02-03T01:17:30;2.40;99.90
18454;DHT22;9356;52.202;20.950;2023-02-03T01:18:33;2.40;99.90
18454;DHT22;9356;52.202;20.950;2023-02-03T01:19:40;4.10;99.90
18454;DHT22;9356;52.202;20.950;2023-02-03T01:20:43;2.30;99.90
18454;DHT22;9356;52.202;20.950;2023-02-03T01:21:47;2.30;99.90
18454;DHT22;9356;52.202;20.950;2023-02-03T01:22:49;2.30;99.90
18454;DHT22;9356;52.202;20.950;2023-02-03T01:23:53;2.30;99.90
18454;DHT22;9356;52.202;20.950;2023-02-03T01:24:56;2.30;99.90
18454;DHT22;9356;52.202;20.950;2023-02-03T01:26:01;2.30;99.90
18454;DHT22;9356;52.202;20.950;2023-02-03T01:27:04;2.30;99.90
18454;DHT22;9356;52.202;20.950;2023-02-03T01:28:08;2.30;99.90
18454;DHT22;9356;52.202;20.950;2023-02-03T01:29:13;2.30;99.90
18454;DHT22;9356;52.202;20.950;2023-02-03T01:30:17;1.50;99.90
18454;DHT22;9356;52.202;20.950;2023-02-03T01:31:27;2.50;99.90
18454;DHT22;9356;52.202;20.950;2023-02-03T01:32:31;2.50;99.90
18454;DHT22;9356;52.202;20.950;2023-02-03T01:33:33;2.50;99.90
18454;DHT22;9356;52.202;20.950;2023-02-03T01:34:37;2.50;99.90
18454;DHT22;9356;52.202;20.950;2023-02-03T01:35:42;2.50;99.90
18454;DHT22;9356;52.202;20.950;2023-02-03T01:36:53;2.50;99.90
18454;DHT22;9356;52.202;20.950;2023-02-03T01:37:57;2.50;99.90
18454;DHT22;9356;52.202;20.950;2023-02-03T01:39:01;3.80;99.90
18454;DHT22;9356;52.202;20.950;2023-02-03T01:40:06;2.60;99.90
18454;DHT22;9356;52.202;20.950;2023-02-03T01:41:12;2.60;99.90
18454;DHT22;9356;52.202;20.950;2023-02-03T01:42:23;2.60;99.90
18454;DHT22;9356;52.202;20.950;2023-02-03T01:43:29;2.60;99.90
18454;DHT22;9356;52.202;20.950;2023-02-03T01:44:42;2.60;99.90
18454;DHT22;9356;52.202;20.950;2023-02-03T01:45:45;2.70;99.90
18454;DHT22;9356;52.202;20.950;2023-02-03T01:46:50;2.70;99.90
18454;DHT22;9356;52.202;20.950;2023-02-03T01:47:55;2.70;99.90
18454;DHT22;9356;52.202;20.950;2023-02-03T01:49:11;2.70;99.90
18454;DHT22;9356;52.202;20.950;2023-02-03T01:50:18;2.50;99.90
18454;DHT22;9356;52.202;20.950;2023-02-03T01:51:23;2.60;99.90
18454;DHT22;9356;52.202;20.950;2023-02-03T01:52:28;2.00;99.90
18454;DHT22;9356;52.202;20.950;2023-02-03T01:53:33;2.60;99.90
18454;DHT22;9356;52.202;20.950;2023-02-03T01:54:41;2.40;99.90
18454;DHT22;9356;52.202;20.950;2023-02-03T01:55:50;2.40;99.90
18454;DHT22;9356;52.202;20.950;2023-02-03T01:56:58;2.40;99.90
18454;DHT22;9356;52.202;20.950;2023-02-03T01:58:06;2.50;99.90
18454;DHT22;9356;52.202;20.950;2023-02-03T01:59:17;2.50;99.90
18454;DHT22;9356;52.202;20.950;2023-02-03T02:00:23;2.50;99.90
18454;DHT22;9356;52.202;20.950;2023-02-03T02:01:36;2.50;99.90
18454;DHT22;9356;52.202;20.950;2023-02-03T02:02:41;2.50;99.90
18454;DHT22;9356;52.202;20.950;2023-02-03T02:03:51;2.40;99.90
18454;DHT22;9356;52.202;20.950;2023-02-03T02:05:02;2.40;99.90
18454;DHT22;9356;52.202;20.950;2023-02-03T02:06:11;2.30;99.90
18454;DHT22;9356;52.202;20.950;2023-02-03T02:07:16;2.30;99.90
18454;DHT22;9356;52.202;20.950;2023-02-03T02:08:19;1.90;99.90
18454;DHT22;9356;52.202;20.950;2023-02-03T02:09:26;2.20;99.90
18454;DHT22;9356;52.202;20.950;2023-02-03T02:10:31;2.10;99.90
18454;DHT22;9356;52.202;20.950;2023-02-03T02:11:35;2.10;99.90
18454;DHT22;9356;52.202;20.950;2023-02-03T02:12:43;2.10;99.90
18454;DHT22;9356;52.202;20.950;2023-02-03T02:13:51;2.00;99.90
18454;DHT22;9356;52.202;20.950;2023-02-03T02:14:55;2.00;99.90
18454;DHT22;9356;52.202;20.950;2023-02-03T02:16:07;1.30;99.90
18454;DHT22;9356;52.202;20.950;2023-02-03T02:17:25;2.40;99.90
18454;DHT22;9356;52.202;20.950;2023-02-03T02:18:56;2.10;99.90
18454;DHT22;9356;52.202;20.950;2023-02-03T02:20:45;2.00;99.90
18454;DHT22;9356;52.202;20.950;2023-02-03T02:22:03;2.00;99.90
18454;DHT22;9356;52.202;20.950;2023-02-03T02:25:34;2.00;99.90
18454;DHT22;9356;52.202;20.950;2023-02-03T02:26:56;2.00;99.90
18454;DHT22;9356;52.202;20.950;2023-02-03T02:28:21;2.10;99.90
18454;DHT22;9356;52.202;20.950;2023-02-03T02:33:22;2.10;99.90
18454;DHT22;9356;52.202;20.950;2023-02-03T02:34:44;2.10;99.90
18454;DHT22;9356;52.202;20.950;2023-02-03T02:35:56;2.20;99.90
18454;DHT22;9356;52.202;20.950;2023-02-03T02:37:11;2.10;99.90
18454;DHT22;9356;52.202;20.950;2023-02-03T02:38:30;1.30;99.90
18454;DHT22;9356;52.202;20.950;2023-02-03T02:39:46;2.10;99.90
18454;DHT22;9356;52.202;20.950;2023-02-03T02:41:01;2.20;99.90
18454;DHT22;9356;52.202;20.950;2023-02-03T02:42:14;2.00;99.90
18454;DHT22;9356;52.202;20.950;2023-02-03T02:43:24;2.30;99.90
18454;DHT22;9356;52.202;20.950;2023-02-03T02:44:36;2.20;99.90
18454;DHT22;9356;52.202;20.950;2023-02-03T02:45:47;2.30;99.90
18454;DHT22;9356;52.202;20.950;2023-02-03T02:46:55;2.30;99.90
18454;DHT22;9356;52.202;20.950;2023-02-03T02:48:04;2.30;99.90
18454;DHT22;9356;52.202;20.950;2023-02-03T02:49:15;2.30;99.90
18454;DHT22;9356;52.202;20.950;2023-02-03T02:50:25;1.60;99.90
18454;DHT22;9356;52.202;20.950;2023-02-03T02:51:33;2.30;99.90
18454;DHT22;9356;52.202;20.950;2023-02-03T02:52:41;2.30;99.90
18454;DHT22;9356;52.202;20.950;2023-02-03T02:53:53;2.40;99.90
18454;DHT22;9356;52.202;20.950;2023-02-03T02:55:07;2.30;99.90
18454;DHT22;9356;52.202;20.950;2023-02-03T02:56:15;2.30;99.90
18454;DHT22;9356;52.202;20.950;2023-02-03T02:57:22;2.30;99.90
18454;DHT22;9356;52.202;20.950;2023-02-03T02:58:31;2.20;99.90
18454;DHT22;9356;52.202;20.950;2023-02-03T02:59:35;2.20;99.90
18454;DHT22;9356;52.202;20.950;2023-02-03T03:00:40;2.20;99.90
18454;DHT22;9356;52.202;20.950;2023-02-03T03:01:51;2.20;99.90
18454;DHT22;9356;52.202;20.950;2023-02-03T03:03:11;2.10;99.90
18454;DHT22;9356;52.202;20.950;2023-02-03T03:04:20;2.00;99.90
18454;DHT22;9356;52.202;20.950;2023-02-03T03:05:28;2.00;99.90
18454;DHT22;9356;52.202;20.950;2023-02-03T03:06:34;2.00;99.90
18454;DHT22;9356;52.202;20.950;2023-02-03T03:07:43;2.00;99.90
18454;DHT22;9356;52.202;20.950;2023-02-03T03:08:54;1.90;99.90
18454;DHT22;9356;52.202;20.950;2023-02-03T03:10:02;1.90;99.90
18454;DHT22;9356;52.202;20.950;2023-02-03T03:11:09;1.90;99.90
18454;DHT22;9356;52.202;20.950;2023-02-03T03:12:21;1.90;99.90
18454;DHT22;9356;52.202;20.950;2023-02-03T03:13:31;1.90;99.90
18454;DHT22;9356;52.202;20.950;2023-02-03T03:14:42;1.80;99.90
18454;DHT22;9356;52.202;20.950;2023-02-03T03:15:50;1.70;99.90
18454;DHT22;9356;52.202;20.950;2023-02-03T03:17:00;1.70;99.90
18454;DHT22;9356;52.202;20.950;2023-02-03T03:18:13;1.70;99.90
18454;DHT22;9356;52.202;20.950;2023-02-03T03:19:23;1.70;99.90
18454;DHT22;9356;52.202;20.950;2023-02-03T03:20:30;1.70;99.90
18454;DHT22;9356;52.202;20.950;2023-02-03T03:21:41;1.80;99.90
18454;DHT22;9356;52.202;20.950;2023-02-03T03:22:53;1.80;99.90
18454;DHT22;9356;52.202;20.950;2023-02-03T03:24:02;1.80;99.90
18454;DHT22;9356;52.202;20.950;2023-02-03T03:25:13;1.80;99.90
18454;DHT22;9356;52.202;20.950;2023-02-03T03:26:23;1.30;99.90
18454;DHT22;9356;52.202;20.950;2023-02-03T03:27:36;1.80;99.90
18454;DHT22;9356;52.202;20.950;2023-02-03T03:28:53;1.80;99.90
18454;DHT22;9356;52.202;20.950;2023-02-03T03:30:04;1.80;99.90
18454;DHT22;9356;52.202;20.950;2023-02-03T03:31:10;2.60;99.90
18454;DHT22;9356;52.202;20.950;2023-02-03T03:32:22;1.80;99.90
18454;DHT22;9356;52.202;20.950;2023-02-03T03:33:29;1.80;99.90
18454;DHT22;9356;52.202;20.950;2023-02-03T03:34:35;1.70;99.90
18454;DHT22;9356;52.202;20.950;2023-02-03T03:35:44;1.80;99.90
18454;DHT22;9356;52.202;20.950;2023-02-03T03:36:57;3.20;99.90
18454;DHT22;9356;52.202;20.950;2023-02-03T03:38:08;1.80;99.90
18454;DHT22;9356;52.202;20.950;2023-02-03T03:39:21;1.70;99.90
18454;DHT22;9356;52.202;20.950;2023-02-03T03:40:34;1.60;99.90
18454;DHT22;9356;52.202;20.950;2023-02-03T03:41:51;1.70;99.90
18454;DHT22;9356;52.202;20.950;2023-02-03T03:42:59;1.70;99.90
18454;DHT22;9356;52.202;20.950;2023-02-03T03:44:10;2.20;99.90
18454;DHT22;9356;52.202;20.950;2023-02-03T03:45:33;1.80;99.90
18454;DHT22;9356;52.202;20.950;2023-02-03T03:46:45;1.70;99.90
18454;DHT22;9356;52.202;20.950;2023-02-03T03:47:58;1.60;99.90
18454;DHT22;9356;52.202;20.950;2023-02-03T03:49:04;1.50;99.90
18454;DHT22;9356;52.202;20.950;2023-02-03T03:50:18;1.60;99.90
18454;DHT22;9356;52.202;20.950;2023-02-03T03:51:29;1.60;99.90
18454;DHT22;9356;52.202;20.950;2023-02-03T03:52:40;1.60;99.90
18454;DHT22;9356;52.202;20.950;2023-02-03T03:53:50;1.60;99.90
18454;DHT22;9356;52.202;20.950;2023-02-03T03:54:59;0.50;99.90
18454;DHT22;9356;52.202;20.950;2023-02-03T03:56:06;1.60;99.90
18454;DHT22;9356;52.202;20.950;2023-02-03T03:57:14;1.60;99.90
18454;DHT22;9356;52.202;20.950;2023-02-03T03:58:25;1.60;99.90
18454;DHT22;9356;52.202;20.950;2023-02-03T03:59:33;1.60;99.90
18454;DHT22;9356;52.202;20.950;2023-02-03T04:00:40;1.60;99.90
18454;DHT22;9356;52.202;20.950;2023-02-03T04:01:44;1.60;99.90
18454;DHT22;9356;52.202;20.950;2023-02-03T04:02:53;1.60;99.90
18454;DHT22;9356;52.202;20.950;2023-02-03T04:04:01;1.60;99.90
18454;DHT22;9356;52.202;20.950;2023-02-03T04:05:06;1.60;99.90
18454;DHT22;9356;52.202;20.950;2023-02-03T04:06:12;1.50;99.90
18454;DHT22;9356;52.202;20.950;2023-02-03T04:07:15;1.50;99.90
18454;DHT22;9356;52.202;20.950;2023-02-03T04:08:19;1.50;99.90
18454;DHT22;9356;52.202;20.950;2023-02-03T04:09:26;2.50;99.90
18454;DHT22;9356;52.202;20.950;2023-02-03T04:10:36;1.50;99.90
18454;DHT22;9356;52.202;20.950;2023-02-03T04:11:39;1.50;99.90
18454;DHT22;9356;52.202;20.950;2023-02-03T04:13:02;1.50;99.90
18454;DHT22;9356;52.202;20.950;2023-02-03T04:14:06;1.50;99.90
18454;DHT22;9356;52.202;20.950;2023-02-03T04:15:08;1.50;99.90
18454;DHT22;9356;52.202;20.950;2023-02-03T04:16:12;1.50;99.90
18454;DHT22;9356;52.202;20.950;2023-02-03T04:17:19;1.50;99.90
18454;DHT22;9356;52.202;20.950;2023-02-03T04:18:25;1.50;99.90
18454;DHT22;9356;52.202;20.950;2023-02-03T04:19:28;1.50;99.90
18454;DHT22;9356;52.202;20.950;2023-02-03T04:20:32;1.50;99.90
18454;DHT22;9356;52.202;20.950;2023-02-03T04:21:36;1.50;99.90
18454;DHT22;9356;52.202;20.950;2023-02-03T04:22:40;1.50;99.90
18454;DHT22;9356;52.202;20.950;2023-02-03T04:23:42;1.40;99.90
18454;DHT22;9356;52.202;20.950;2023-02-03T04:24:46;1.40;99.90
18454;DHT22;9356;52.202;20.950;2023-02-03T04:25:52;1.50;99.90
18454;DHT22;9356;52.202;20.950;2023-02-03T04:26:54;1.40;99.90
18454;DHT22;9356;52.202;20.950;2023-02-03T04:27:57;1.40;99.90
18454;DHT22;9356;52.202;20.950;2023-02-03T04:29:07;0.80;99.90
18454;DHT22;9356;52.202;20.950;2023-02-03T04:30:14;1.40;99.90
18454;DHT22;9356;52.202;20.950;2023-02-03T04:31:19;1.40;99.90
18454;DHT22;9356;52.202;20.950;2023-02-03T04:32:22;2.30;99.90
18454;DHT22;9356;52.202;20.950;2023-02-03T04:33:25;1.40;99.90
18454;DHT22;9356;52.202;20.950;2023-02-03T04:34:32;1.40;99.90
18454;DHT22;9356;52.202;20.950;2023-02-03T04:35:37;1.40;99.90
18454;DHT22;9356;52.202;20.950;2023-02-03T04:36:41;1.30;99.90
18454;DHT22;9356;52.202;20.950;2023-02-03T04:37:46;1.30;99.90
18454;DHT22;9356;52.202;20.950;2023-02-03T04:38:48;1.40;99.90
18454;DHT22;9356;52.202;20.950;2023-02-03T04:39:52;1.30;99.90
18454;DHT22;9356;52.202;20.950;2023-02-03T04:40:59;1.30;99.90
18454;DHT22;9356;52.202;20.950;2023-02-03T04:42:05;1.30;99.90
18454;DHT22;9356;52.202;20.950;2023-02-03T04:43:10;1.30;99.90
18454;DHT22;9356;52.202;20.950;2023-02-03T04:44:15;1.30;99.90
18454;DHT22;9356;52.202;20.950;2023-02-03T04:45:17;1.30;99.90
18454;DHT22;9356;52.202;20.950;2023-02-03T04:46:21;1.20;99.90
18454;DHT22;9356;52.202;20.950;2023-02-03T04:47:24;1.20;99.90
18454;DHT22;9356;52.202;20.950;2023-02-03T04:48:28;1.20;99.90
18454;DHT22;9356;52.202;20.950;2023-02-03T04:49:30;1.20;99.90
18454;DHT22;9356;52.202;20.950;2023-02-03T04:50:34;1.20;99.90
18454;DHT22;9356;52.202;20.950;2023-02-03T04:51:36;2.10;99.90
18454;DHT22;9356;52.202;20.950;2023-02-03T04:52:41;1.20;99.90
18454;DHT22;9356;52.202;20.950;2023-02-03T04:53:44;1.00;99.90
18454;DHT22;9356;52.202;20.950;2023-02-03T04:54:47;1.30;99.90
18454;DHT22;9356;52.202;20.950;2023-02-03T04:55:50;1.00;99.90
18454;DHT22;9356;52.202;20.950;2023-02-03T04:56:54;1.00;99.90
18454;DHT22;9356;52.202;20.950;2023-02-03T04:58:03;1.10;99.90
18454;DHT22;9356;52.202;20.950;2023-02-03T04:59:10;1.00;99.90
18454;DHT22;9356;52.202;20.950;2023-02-03T05:00:13;1.10;99.90
18454;DHT22;9356;52.202;20.950;2023-02-03T05:01:17;1.10;99.90
18454;DHT22;9356;52.202;20.950;2023-02-03T05:02:20;1.70;99.90
18454;DHT22;9356;52.202;20.950;2023-02-03T05:03:26;1.10;99.90
18454;DHT22;9356;52.202;20.950;2023-02-03T05:04:28;1.10;99.90
18454;DHT22;9356;52.202;20.950;2023-02-03T05:05:32;1.10;99.90
18454;DHT22;9356;52.202;20.950;2023-02-03T05:06:34;1.10;99.90
18454;DHT22;9356;52.202;20.950;2023-02-03T05:07:38;1.00;99.90
18454;DHT22;9356;52.202;20.950;2023-02-03T05:08:47;1.00;99.90
18454;DHT22;9356;52.202;20.950;2023-02-03T05:09:49;1.30;99.90
18454;DHT22;9356;52.202;20.950;2023-02-03T05:10:53;-0.30;99.90
18454;DHT22;9356;52.202;20.950;2023-02-03T05:12:03;1.10;99.90
18454;DHT22;9356;52.202;20.950;2023-02-03T05:13:07;1.10;99.90
18454;DHT22;9356;52.202;20.950;2023-02-03T05:14:10;1.20;99.90
18454;DHT22;9356;52.202;20.950;2023-02-03T05:15:15;1.10;99.90
18454;DHT22;9356;52.202;20.950;2023-02-03T05:16:20;1.10;99.90
18454;DHT22;9356;52.202;20.950;2023-02-03T05:17:24;1.90;99.90
18454;DHT22;9356;52.202;20.950;2023-02-03T05:18:31;1.10;99.90
18454;DHT22;9356;52.202;20.950;2023-02-03T05:19:35;1.10;99.90
18454;DHT22;9356;52.202;20.950;2023-02-03T05:20:38;1.10;99.90
18454;DHT22;9356;52.202;20.950;2023-02-03T05:21:41;1.20;99.90
18454;DHT22;9356;52.202;20.950;2023-02-03T05:22:44;1.10;99.90
18454;DHT22;9356;52.202;20.950;2023-02-03T05:23:48;1.10;99.90
18454;DHT22;9356;52.202;20.950;2023-02-03T05:24:52;1.00;99.90
18454;DHT22;9356;52.202;20.950;2023-02-03T05:25:55;1.00;99.90
18454;DHT22;9356;52.202;20.950;2023-02-03T05:26:58;1.00;99.90
18454;DHT22;9356;52.202;20.950;2023-02-03T05:28:01;1.10;99.90
18454;DHT22;9356;52.202;20.950;2023-02-03T05:29:11;1.10;99.90
18454;DHT22;9356;52.202;20.950;2023-02-03T05:30:17;1.00;99.90
18454;DHT22;9356;52.202;20.950;2023-02-03T05:31:20;1.10;99.90
18454;DHT22;9356;52.202;20.950;2023-02-03T05:32:24;1.10;99.90
18454;DHT22;9356;52.202;20.950;2023-02-03T05:33:30;1.10;99.90
18454;DHT22;9356;52.202;20.950;2023-02-03T05:34:37;1.00;99.90
18454;DHT22;9356;52.202;20.950;2023-02-03T05:35:43;1.10;99.90
18454;DHT22;9356;52.202;20.950;2023-02-03T05:36:49;1.00;99.90
18454;DHT22;9356;52.202;20.950;2023-02-03T05:37:52;1.00;99.90
18454;DHT22;9356;52.202;20.950;2023-02-03T05:38:57;1.00;99.90
18454;DHT22;9356;52.202;20.950;2023-02-03T05:40:00;1.00;99.90
18454;DHT22;9356;52.202;20.950;2023-02-03T05:41:18;2.40;99.90
18454;DHT22;9356;52.202;20.950;2023-02-03T05:42:39;1.00;99.90
18454;DHT22;9356;52.202;20.950;2023-02-03T05:43:48;0.90;99.90
18454;DHT22;9356;52.202;20.950;2023-02-03T05:44:50;0.90;99.90
18454;DHT22;9356;52.202;20.950;2023-02-03T05:45:54;0.90;99.90
18454;DHT22;9356;52.202;20.950;2023-02-03T05:46:58;0.90;99.90
18454;DHT22;9356;52.202;20.950;2023-02-03T05:48:01;0.90;99.90
18454;DHT22;9356;52.202;20.950;2023-02-03T05:49:04;0.90;99.90
18454;DHT22;9356;52.202;20.950;2023-02-03T05:50:10;0.90;99.90
18454;DHT22;9356;52.202;20.950;2023-02-03T05:51:13;0.90;99.90
18454;DHT22;9356;52.202;20.950;2023-02-03T05:52:16;0.90;99.90
18454;DHT22;9356;52.202;20.950;2023-02-03T05:53:19;0.90;99.90
18454;DHT22;9356;52.202;20.950;2023-02-03T05:54:24;1.00;99.90
18454;DHT22;9356;52.202;20.950;2023-02-03T05:55:28;1.00;99.90
18454;DHT22;9356;52.202;20.950;2023-02-03T05:56:31;1.00;99.90
18454;DHT22;9356;52.202;20.950;2023-02-03T05:57:36;-0.50;99.90
18454;DHT22;9356;52.202;20.950;2023-02-03T05:58:39;1.00;99.90
18454;DHT22;9356;52.202;20.950;2023-02-03T05:59:43;0.90;99.90
18454;DHT22;9356;52.202;20.950;2023-02-03T06:00:45;0.20;99.90
18454;DHT22;9356;52.202;20.950;2023-02-03T06:01:49;1.00;99.90
18454;DHT22;9356;52.202;20.950;2023-02-03T06:02:59;1.10;99.90
18454;DHT22;9356;52.202;20.950;2023-02-03T06:04:04;1.10;99.90
18454;DHT22;9356;52.202;20.950;2023-02-03T06:05:08;1.10;99.90
18454;DHT22;9356;52.202;20.950;2023-02-03T06:06:10;1.20;99.90
18454;DHT22;9356;52.202;20.950;2023-02-03T06:07:14;1.20;99.90
18454;DHT22;9356;52.202;20.950;2023-02-03T06:08:16;1.20;99.90
18454;DHT22;9356;52.202;20.950;2023-02-03T06:09:20;1.20;99.90
18454;DHT22;9356;52.202;20.950;2023-02-03T06:10:25;1.20;99.90
18454;DHT22;9356;52.202;20.950;2023-02-03T06:11:30;1.20;99.90
18454;DHT22;9356;52.202;20.950;2023-02-03T06:12:32;1.20;99.90
18454;DHT22;9356;52.202;20.950;2023-02-03T06:13:36;1.20;99.90
18454;DHT22;9356;52.202;20.950;2023-02-03T06:14:43;1.10;99.90
18454;DHT22;9356;52.202;20.950;2023-02-03T06:15:47;1.20;99.90
18454;DHT22;9356;52.202;20.950;2023-02-03T06:16:49;1.20;99.90
18454;DHT22;9356;52.202;20.950;2023-02-03T06:17:53;1.10;99.90
18454;DHT22;9356;52.202;20.950;2023-02-03T06:18:56;1.10;99.90
18454;DHT22;9356;52.202;20.950;2023-02-03T06:20:07;1.10;99.90
18454;DHT22;9356;52.202;20.950;2023-02-03T06:21:10;1.10;99.90
18454;DHT22;9356;52.202;20.950;2023-02-03T06:22:14;2.30;99.90
18454;DHT22;9356;52.202;20.950;2023-02-03T06:23:16;1.10;99.90
18454;DHT22;9356;52.202;20.950;2023-02-03T06:24:21;1.10;99.90
18454;DHT22;9356;52.202;20.950;2023-02-03T06:25:25;1.10;99.90
18454;DHT22;9356;52.202;20.950;2023-02-03T06:26:29;1.10;99.90
18454;DHT22;9356;52.202;20.950;2023-02-03T06:27:32;1.10;99.90
18454;DHT22;9356;52.202;20.950;2023-02-03T06:28:36;1.10;99.90
18454;DHT22;9356;52.202;20.950;2023-02-03T06:29:39;1.10;99.90
18454;DHT22;9356;52.202;20.950;2023-02-03T06:30:43;1.10;99.90
18454;DHT22;9356;52.202;20.950;2023-02-03T06:31:46;1.50;99.90
18454;DHT22;9356;52.202;20.950;2023-02-03T06:32:50;1.20;99.90
18454;DHT22;9356;52.202;20.950;2023-02-03T06:33:56;1.20;99.90
18454;DHT22;9356;52.202;20.950;2023-02-03T06:34:58;1.20;99.90
18454;DHT22;9356;52.202;20.950;2023-02-03T06:36:02;1.20;99.90
18454;DHT22;9356;52.202;20.950;2023-02-03T06:37:05;1.20;99.90
18454;DHT22;9356;52.202;20.950;2023-02-03T06:38:08;1.90;99.90
18454;DHT22;9356;52.202;20.950;2023-02-03T06:39:11;1.10;99.90
18454;DHT22;9356;52.202;20.950;2023-02-03T06:40:15;1.30;99.90
18454;DHT22;9356;52.202;20.950;2023-02-03T06:41:19;1.30;99.90
18454;DHT22;9356;52.202;20.950;2023-02-03T06:42:31;1.30;99.90
18454;DHT22;9356;52.202;20.950;2023-02-03T06:43:34;1.40;99.90
18454;DHT22;9356;52.202;20.950;2023-02-03T06:44:38;1.30;99.90
18454;DHT22;9356;52.202;20.950;2023-02-03T06:45:40;1.20;99.90
18454;DHT22;9356;52.202;20.950;2023-02-03T06:46:44;1.20;99.90
18454;DHT22;9356;52.202;20.950;2023-02-03T06:47:47;1.30;99.90
18454;DHT22;9356;52.202;20.950;2023-02-03T06:48:50;1.30;99.90
18454;DHT22;9356;52.202;20.950;2023-02-03T06:50:01;1.30;99.90
18454;DHT22;9356;52.202;20.950;2023-02-03T06:51:04;1.30;99.90
18454;DHT22;9356;52.202;20.950;2023-02-03T06:52:07;1.30;99.90
18454;DHT22;9356;52.202;20.950;2023-02-03T06:53:15;2.50;99.90
18454;DHT22;9356;52.202;20.950;2023-02-03T06:54:22;1.40;99.90
18454;DHT22;9356;52.202;20.950;2023-02-03T06:55:30;1.40;99.90
18454;DHT22;9356;52.202;20.950;2023-02-03T06:56:34;1.40;99.90
18454;DHT22;9356;52.202;20.950;2023-02-03T06:57:42;1.40;99.90
18454;DHT22;9356;52.202;20.950;2023-02-03T06:58:45;1.40;99.90
18454;DHT22;9356;52.202;20.950;2023-02-03T06:59:49;1.50;99.90
18454;DHT22;9356;52.202;20.950;2023-02-03T07:00:54;1.50;99.90
18454;DHT22;9356;52.202;20.950;2023-02-03T07:02:03;1.60;99.90
18454;DHT22;9356;52.202;20.950;2023-02-03T07:03:12;1.70;99.90
18454;DHT22;9356;52.202;20.950;2023-02-03T07:04:19;1.70;99.90
18454;DHT22;9356;52.202;20.950;2023-02-03T07:05:24;2.90;99.90
18454;DHT22;9356;52.202;20.950;2023-02-03T07:06:31;1.80;99.90
18454;DHT22;9356;52.202;20.950;2023-02-03T07:07:35;3.10;99.90
18454;DHT22;9356;52.202;20.950;2023-02-03T07:08:40;2.00;99.90
18454;DHT22;9356;52.202;20.950;2023-02-03T07:09:43;2.10;99.90
18454;DHT22;9356;52.202;20.950;2023-02-03T07:10:47;2.20;99.90
18454;DHT22;9356;52.202;20.950;2023-02-03T07:11:56;2.20;99.90
18454;DHT22;9356;52.202;20.950;2023-02-03T07:13:02;2.30;99.90